sensor_id;sensor_type;location;lat;lon;timestamp;pressure;altitude;pressure_sealevel;temperature;humidity
29815;BME280;16708;50.426;7.664;2023-02-26T00:02:38;985.31;;;-3.34;100.00
29815;BME280;16708;50.426;7.664;2023-02-26T00:07:32;985.44;;;-3.32;100.00
29815;BME280;16708;50.426;7.664;2023-02-26T00:12:25;985.42;;;-3.04;100.00
29815;BME280;16708;50.426;7.664;2023-02-26T00:17:20;985.35;;;-2.95;100.00
29815;BME280;16708;50.426;7.664;2023-02-26T00:22:11;985.42;;;-2.70;100.00
29815;BME280;16708;50.426;7.664;2023-02-26T00:27:04;985.37;;;-2.56;100.00
29815;BME280;16708;50.426;7.664;2023-02-26T00:31:58;985.50;;;-2.63;100.00
29815;BME280;16708;50.426;7.664;2023-02-26T00:41:46;985.48;;;-2.80;100.00
29815;BME280;16708;50.426;7.664;2023-02-26T00:46:41;985.49;;;-2.66;100.00
29815;BME280;16708;50.426;7.664;2023-02-26T00:51:35;985.56;;;-2.54;100.00
29815;BME280;16708;50.426;7.664;2023-02-26T00:56:29;985.65;;;-2.44;100.00
29815;BME280;16708;50.426;7.664;2023-02-26T01:01:23;985.68;;;-2.36;100.00
29815;BME280;16708;50.426;7.664;2023-02-26T01:06:18;985.70;;;-2.35;100.00
29815;BME280;16708;50.426;7.664;2023-02-26T01:11:12;985.66;;;-2.39;100.00
29815;BME280;16708;50.426;7.664;2023-02-26T01:16:06;985.74;;;-2.41;100.00
29815;BME280;16708;50.426;7.664;2023-02-26T01:21:00;985.67;;;-2.60;100.00
29815;BME280;16708;50.426;7.664;2023-02-26T01:25:53;985.61;;;-2.76;100.00
29815;BME280;16708;50.426;7.664;2023-02-26T01:30:50;985.68;;;-2.74;100.00
29815;BME280;16708;50.426;7.664;2023-02-26T01:40:36;985.74;;;-2.85;100.00
29815;BME280;16708;50.426;7.664;2023-02-26T01:50:23;985.92;;;-2.76;100.00
29815;BME280;16708;50.426;7.664;2023-02-26T01:55:18;985.93;;;-2.50;100.00
29815;BME280;16708;50.426;7.664;2023-02-26T02:00:12;985.92;;;-2.28;100.00
29815;BME280;16708;50.426;7.664;2023-02-26T02:05:04;985.93;;;-2.16;100.00
29815;BME280;16708;50.426;7.664;2023-02-26T02:09:58;985.93;;;-2.18;100.00
29815;BME280;16708;50.426;7.664;2023-02-26T02:14:51;985.99;;;-2.22;100.00
29815;BME280;16708;50.426;7.664;2023-02-26T02:34:26;986.08;;;-2.12;100.00
29815;BME280;16708;50.426;7.664;2023-02-26T02:39:20;986.11;;;-2.21;100.00
29815;BME280;16708;50.426;7.664;2023-02-26T02:44:13;986.16;;;-2.29;100.00
29815;BME280;16708;50.426;7.664;2023-02-26T02:49:08;986.15;;;-2.38;100.00
29815;BME280;16708;50.426;7.664;2023-02-26T02:54:02;986.20;;;-2.49;100.00
29815;BME280;16708;50.426;7.664;2023-02-26T02:58:56;986.26;;;-2.60;100.00
29815;BME280;16708;50.426;7.664;2023-02-26T03:03:50;986.31;;;-2.66;100.00
29815;BME280;16708;50.426;7.664;2023-02-26T03:08:44;986.26;;;-2.66;100.00
29815;BME280;16708;50.426;7.664;2023-02-26T03:13:38;986.36;;;-2.66;100.00
29815;BME280;16708;50.426;7.664;2023-02-26T03:23:23;986.40;;;-2.57;100.00
29815;BME280;16708;50.426;7.664;2023-02-26T03:28:17;986.39;;;-2.47;100.00
29815;BME280;16708;50.426;7.664;2023-02-26T03:33:12;986.55;;;-2.38;100.00
29815;BME280;16708;50.426;7.664;2023-02-26T03:38:06;986.59;;;-2.40;100.00
29815;BME280;16708;50.426;7.664;2023-02-26T03:43:00;986.59;;;-2.43;100.00
29815;BME280;16708;50.426;7.664;2023-02-26T03:47:54;986.57;;;-2.56;100.00
29815;BME280;16708;50.426;7.664;2023-02-26T03:52:48;986.61;;;-2.62;100.00
29815;BME280;16708;50.426;7.664;2023-02-26T03:57:40;986.72;;;-2.73;100.00
29815;BME280;16708;50.426;7.664;2023-02-26T04:02:33;986.69;;;-2.84;100.00
29815;BME280;16708;50.426;7.664;2023-02-26T04:07:27;986.79;;;-2.93;100.00
29815;BME280;16708;50.426;7.664;2023-02-26T04:12:24;986.90;;;-3.03;100.00
29815;BME280;16708;50.426;7.664;2023-02-26T04:17:12;986.91;;;-3.08;100.00
29815;BME280;16708;50.426;7.664;2023-02-26T04:22:06;986.94;;;-3.16;100.00
29815;BME280;16708;50.426;7.664;2023-02-26T04:27:00;987.02;;;-3.12;100.00
29815;BME280;16708;50.426;7.664;2023-02-26T04:31:54;987.15;;;-3.01;100.00
29815;BME280;16708;50.426;7.664;2023-02-26T04:36:47;987.23;;;-3.12;100.00
29815;BME280;16708;50.426;7.664;2023-02-26T04:41:41;987.20;;;-3.21;100.00
29815;BME280;16708;50.426;7.664;2023-02-26T04:46:36;987.37;;;-3.28;100.00
29815;BME280;16708;50.426;7.664;2023-02-26T04:51:29;987.33;;;-3.35;100.00
29815;BME280;16708;50.426;7.664;2023-02-26T04:56:21;987.42;;;-3.48;100.00
29815;BME280;16708;50.426;7.664;2023-02-26T05:01:15;987.50;;;-3.54;100.00
29815;BME280;16708;50.426;7.664;2023-02-26T05:06:10;987.45;;;-3.65;100.00
29815;BME280;16708;50.426;7.664;2023-02-26T05:11:03;987.59;;;-3.59;100.00
29815;BME280;16708;50.426;7.664;2023-02-26T05:15:57;987.55;;;-3.57;100.00
29815;BME280;16708;50.426;7.664;2023-02-26T05:20:50;987.59;;;-3.56;100.00
29815;BME280;16708;50.426;7.664;2023-02-26T05:25:44;987.66;;;-3.59;100.00
29815;BME280;16708;50.426;7.664;2023-02-26T05:30:38;987.70;;;-3.72;100.00
29815;BME280;16708;50.426;7.664;2023-02-26T05:35:31;987.80;;;-3.79;100.00
29815;BME280;16708;50.426;7.664;2023-02-26T05:40:25;987.77;;;-3.90;100.00
29815;BME280;16708;50.426;7.664;2023-02-26T05:45:20;987.85;;;-4.00;100.00
29815;BME280;16708;50.426;7.664;2023-02-26T05:50:12;987.99;;;-4.04;100.00
29815;BME280;16708;50.426;7.664;2023-02-26T05:55:05;988.04;;;-4.11;100.00
29815;BME280;16708;50.426;7.664;2023-02-26T06:00:02;988.11;;;-4.27;100.00
29815;BME280;16708;50.426;7.664;2023-02-26T06:04:53;988.19;;;-4.24;100.00
29815;BME280;16708;50.426;7.664;2023-02-26T06:09:47;988.30;;;-4.31;100.00
29815;BME280;16708;50.426;7.664;2023-02-26T06:14:40;988.30;;;-4.36;100.00
29815;BME280;16708;50.426;7.664;2023-02-26T06:19:34;988.36;;;-4.26;100.00
29815;BME280;16708;50.426;7.664;2023-02-26T06:24:28;988.45;;;-3.97;100.00
29815;BME280;16708;50.426;7.664;2023-02-26T06:29:22;988.47;;;-3.83;100.00
29815;BME280;16708;50.426;7.664;2023-02-26T06:34:16;988.63;;;-3.55;100.00
29815;BME280;16708;50.426;7.664;2023-02-26T06:39:10;988.67;;;-3.53;100.00
29815;BME280;16708;50.426;7.664;2023-02-26T06:44:03;988.72;;;-3.40;100.00
29815;BME280;16708;50.426;7.664;2023-02-26T06:48:58;988.87;;;-3.27;100.00
29815;BME280;16708;50.426;7.664;2023-02-26T06:53:52;988.93;;;-3.20;100.00
29815;BME280;16708;50.426;7.664;2023-02-26T06:58:46;989.07;;;-2.90;100.00
29815;BME280;16708;50.426;7.664;2023-02-26T07:03:40;989.03;;;-1.96;100.00
29815;BME280;16708;50.426;7.664;2023-02-26T07:08:34;989.16;;;-2.36;100.00
29815;BME280;16708;50.426;7.664;2023-02-26T07:13:28;989.28;;;-2.78;100.00
29815;BME280;16708;50.426;7.664;2023-02-26T07:18:22;989.47;;;-2.54;100.00
29815;BME280;16708;50.426;7.664;2023-02-26T07:23:16;989.56;;;-2.35;100.00
29815;BME280;16708;50.426;7.664;2023-02-26T07:28:10;989.64;;;-2.27;100.00
29815;BME280;16708;50.426;7.664;2023-02-26T07:33:04;989.64;;;-2.13;100.00
29815;BME280;16708;50.426;7.664;2023-02-26T07:37:59;989.77;;;-2.04;100.00
29815;BME280;16708;50.426;7.664;2023-02-26T07:42:53;989.79;;;-2.01;100.00
29815;BME280;16708;50.426;7.664;2023-02-26T07:47:47;989.84;;;-1.93;100.00
29815;BME280;16708;50.426;7.664;2023-02-26T07:52:41;989.86;;;-0.92;100.00
29815;BME280;16708;50.426;7.664;2023-02-26T07:57:36;989.92;;;-0.88;100.00
29815;BME280;16708;50.426;7.664;2023-02-26T08:02:30;990.03;;;-1.06;100.00
29815;BME280;16708;50.426;7.664;2023-02-26T08:07:23;990.14;;;-1.07;100.00
29815;BME280;16708;50.426;7.664;2023-02-26T08:12:17;990.00;;;-0.91;100.00
29815;BME280;16708;50.426;7.664;2023-02-26T08:17:11;990.07;;;-0.77;100.00
29815;BME280;16708;50.426;7.664;2023-02-26T08:22:06;990.13;;;-0.57;100.00
29815;BME280;16708;50.426;7.664;2023-02-26T08:27:00;990.20;;;-0.62;100.00
29815;BME280;16708;50.426;7.664;2023-02-26T08:31:55;990.16;;;-0.27;100.00
29815;BME280;16708;50.426;7.664;2023-02-26T08:36:49;990.18;;;-0.11;100.00
29815;BME280;16708;50.426;7.664;2023-02-26T08:41:44;990.31;;;-0.15;100.00
29815;BME280;16708;50.426;7.664;2023-02-26T08:46:38;990.35;;;0.07;100.00
29815;BME280;16708;50.426;7.664;2023-02-26T08:51:32;990.27;;;0.25;100.00
29815;BME280;16708;50.426;7.664;2023-02-26T08:56:29;990.39;;;0.96;100.00
29815;BME280;16708;50.426;7.664;2023-02-26T09:01:20;990.42;;;1.24;100.00
29815;BME280;16708;50.426;7.664;2023-02-26T09:06:14;990.56;;;0.95;100.00
29815;BME280;16708;50.426;7.664;2023-02-26T09:11:09;990.67;;;1.20;99.37
29815;BME280;16708;50.426;7.664;2023-02-26T09:16:05;990.67;;;1.65;90.16
29815;BME280;16708;50.426;7.664;2023-02-26T09:21:00;990.57;;;1.70;75.37
29815;BME280;16708;50.426;7.664;2023-02-26T09:25:55;990.78;;;4.15;60.50
29815;BME280;16708;50.426;7.664;2023-02-26T09:30:50;990.67;;;5.79;54.25
29815;BME280;16708;50.426;7.664;2023-02-26T09:35:46;990.69;;;5.13;52.57
29815;BME280;16708;50.426;7.664;2023-02-26T09:40:38;990.69;;;3.07;59.49
29815;BME280;16708;50.426;7.664;2023-02-26T09:45:31;990.84;;;6.13;52.01
29815;BME280;16708;50.426;7.664;2023-02-26T09:50:26;990.85;;;4.37;52.63
29815;BME280;16708;50.426;7.664;2023-02-26T10:10:08;991.13;;;8.98;38.82
29815;BME280;16708;50.426;7.664;2023-02-26T10:15:03;991.23;;;9.17;38.37
29815;BME280;16708;50.426;7.664;2023-02-26T10:19:57;991.22;;;8.56;37.40
29815;BME280;16708;50.426;7.664;2023-02-26T10:24:51;991.43;;;10.53;33.81
29815;BME280;16708;50.426;7.664;2023-02-26T10:29:45;991.38;;;8.22;37.88
29815;BME280;16708;50.426;7.664;2023-02-26T10:34:39;991.45;;;4.55;43.62
29815;BME280;16708;50.426;7.664;2023-02-26T10:39:31;991.44;;;3.77;46.52
29815;BME280;16708;50.426;7.664;2023-02-26T10:49:18;991.50;;;3.85;45.99
29815;BME280;16708;50.426;7.664;2023-02-26T10:54:10;991.57;;;3.70;46.38
29815;BME280;16708;50.426;7.664;2023-02-26T10:59:04;991.52;;;3.60;46.14
29815;BME280;16708;50.426;7.664;2023-02-26T11:08:52;991.51;;;3.64;48.85
29815;BME280;16708;50.426;7.664;2023-02-26T11:13:46;991.50;;;3.14;50.86
29815;BME280;16708;50.426;7.664;2023-02-26T11:23:35;991.63;;;2.60;51.70
29815;BME280;16708;50.426;7.664;2023-02-26T11:28:29;991.71;;;2.69;52.60
29815;BME280;16708;50.426;7.664;2023-02-26T11:33:23;991.68;;;2.84;51.78
29815;BME280;16708;50.426;7.664;2023-02-26T11:38:17;991.66;;;3.06;50.87
29815;BME280;16708;50.426;7.664;2023-02-26T11:43:11;991.74;;;3.20;50.94
29815;BME280;16708;50.426;7.664;2023-02-26T11:48:05;991.70;;;3.35;50.99
29815;BME280;16708;50.426;7.664;2023-02-26T11:52:58;991.84;;;3.39;50.20
29815;BME280;16708;50.426;7.664;2023-02-26T12:02:47;991.83;;;3.36;48.75
29815;BME280;16708;50.426;7.664;2023-02-26T12:07:41;991.81;;;3.24;49.74
29815;BME280;16708;50.426;7.664;2023-02-26T12:41:58;992.02;;;3.87;50.03
29815;BME280;16708;50.426;7.664;2023-02-26T13:06:27;992.01;;;3.78;51.52
29815;BME280;16708;50.426;7.664;2023-02-26T13:16:14;992.10;;;3.08;51.67
29815;BME280;16708;50.426;7.664;2023-02-26T13:21:09;992.10;;;2.46;53.87
29815;BME280;16708;50.426;7.664;2023-02-26T13:30:57;992.15;;;3.05;51.40
29815;BME280;16708;50.426;7.664;2023-02-26T13:45:36;992.22;;;2.89;51.80
29815;BME280;16708;50.426;7.664;2023-02-26T13:50:30;992.22;;;2.87;51.88
29815;BME280;16708;50.426;7.664;2023-02-26T13:55:25;992.26;;;3.07;52.32
29815;BME280;16708;50.426;7.664;2023-02-26T14:00:19;992.22;;;8.33;40.37
29815;BME280;16708;50.426;7.664;2023-02-26T14:05:15;992.25;;;7.06;41.33
29815;BME280;16708;50.426;7.664;2023-02-26T14:20:02;992.29;;;11.19;32.72
29815;BME280;16708;50.426;7.664;2023-02-26T14:24:57;992.38;;;10.50;32.19
29815;BME280;16708;50.426;7.664;2023-02-26T14:29:52;992.27;;;10.07;32.57
29815;BME280;16708;50.426;7.664;2023-02-26T14:34:47;992.21;;;8.45;34.61
29815;BME280;16708;50.426;7.664;2023-02-26T14:39:41;992.39;;;5.80;39.04
29815;BME280;16708;50.426;7.664;2023-02-26T14:49:26;992.42;;;4.26;44.02
29815;BME280;16708;50.426;7.664;2023-02-26T15:18:49;992.46;;;4.42;44.93
29815;BME280;16708;50.426;7.664;2023-02-26T15:23:43;992.42;;;4.97;43.75
29815;BME280;16708;50.426;7.664;2023-02-26T15:28:37;992.46;;;5.56;42.29
29815;BME280;16708;50.426;7.664;2023-02-26T15:33:32;992.45;;;3.55;46.06
29815;BME280;16708;50.426;7.664;2023-02-26T15:38:26;992.55;;;3.25;47.48
29815;BME280;16708;50.426;7.664;2023-02-26T15:43:19;992.51;;;3.11;48.35
29815;BME280;16708;50.426;7.664;2023-02-26T15:48:12;992.47;;;3.05;48.48
29815;BME280;16708;50.426;7.664;2023-02-26T15:53:06;992.52;;;3.10;49.00
29815;BME280;16708;50.426;7.664;2023-02-26T15:58:00;992.55;;;4.88;46.05
29815;BME280;16708;50.426;7.664;2023-02-26T16:02:55;992.53;;;5.27;43.17
29815;BME280;16708;50.426;7.664;2023-02-26T16:07:50;992.46;;;4.60;44.92
29815;BME280;16708;50.426;7.664;2023-02-26T16:12:44;992.51;;;3.14;49.21
29815;BME280;16708;50.426;7.664;2023-02-26T16:17:36;992.63;;;2.55;50.10
29815;BME280;16708;50.426;7.664;2023-02-26T16:22:30;992.72;;;2.04;50.65
29815;BME280;16708;50.426;7.664;2023-02-26T16:27:23;992.70;;;5.41;43.73
29815;BME280;16708;50.426;7.664;2023-02-26T16:32:17;992.79;;;5.45;43.77
29815;BME280;16708;50.426;7.664;2023-02-26T19:04:20;994.58;;;-0.85;71.76
29815;BME280;16708;50.426;7.664;2023-02-26T19:09:14;994.66;;;-0.91;72.53
29815;BME280;16708;50.426;7.664;2023-02-26T19:14:08;994.62;;;-0.97;74.12
29815;BME280;16708;50.426;7.664;2023-02-26T19:19:02;994.63;;;-0.97;74.80
29815;BME280;16708;50.426;7.664;2023-02-26T19:23:56;994.67;;;-0.99;76.49
29815;BME280;16708;50.426;7.664;2023-02-26T19:28:49;994.71;;;-0.99;73.42
29815;BME280;16708;50.426;7.664;2023-02-26T19:33:43;994.71;;;-1.11;75.73
29815;BME280;16708;50.426;7.664;2023-02-26T19:38:35;994.76;;;-1.21;77.70
29815;BME280;16708;50.426;7.664;2023-02-26T19:43:29;994.75;;;-1.30;78.07
29815;BME280;16708;50.426;7.664;2023-02-26T19:48:22;994.80;;;-1.36;82.16
29815;BME280;16708;50.426;7.664;2023-02-26T19:53:16;994.93;;;-1.32;80.23
29815;BME280;16708;50.426;7.664;2023-02-26T19:58:09;994.98;;;-1.36;80.36
29815;BME280;16708;50.426;7.664;2023-02-26T20:03:03;994.97;;;-1.47;83.02
29815;BME280;16708;50.426;7.664;2023-02-26T20:07:56;994.97;;;-1.66;89.35
29815;BME280;16708;50.426;7.664;2023-02-26T20:12:50;995.08;;;-1.68;92.17
29815;BME280;16708;50.426;7.664;2023-02-26T20:17:41;995.15;;;-1.84;95.06
29815;BME280;16708;50.426;7.664;2023-02-26T20:22:35;995.17;;;-1.83;95.68
29815;BME280;16708;50.426;7.664;2023-02-26T20:27:28;995.27;;;-1.74;95.33
29815;BME280;16708;50.426;7.664;2023-02-26T20:32:21;995.31;;;-1.82;94.55
29815;BME280;16708;50.426;7.664;2023-02-26T20:37:14;995.29;;;-1.83;96.02
29815;BME280;16708;50.426;7.664;2023-02-26T20:42:08;995.28;;;-1.96;100.00
29815;BME280;16708;50.426;7.664;2023-02-26T20:47:02;995.33;;;-2.12;100.00
29815;BME280;16708;50.426;7.664;2023-02-26T20:51:56;995.33;;;-2.15;100.00
29815;BME280;16708;50.426;7.664;2023-02-26T20:56:50;995.31;;;-2.10;100.00
29815;BME280;16708;50.426;7.664;2023-02-26T21:01:44;995.33;;;-2.16;100.00
29815;BME280;16708;50.426;7.664;2023-02-26T21:06:38;995.31;;;-2.25;100.00
29815;BME280;16708;50.426;7.664;2023-02-26T21:11:32;995.44;;;-2.35;100.00
29815;BME280;16708;50.426;7.664;2023-02-26T21:16:26;995.54;;;-2.37;100.00
29815;BME280;16708;50.426;7.664;2023-02-26T21:21:20;995.57;;;-2.35;100.00
29815;BME280;16708;50.426;7.664;2023-02-26T21:26:13;995.59;;;-2.30;100.00
29815;BME280;16708;50.426;7.664;2023-02-26T21:31:10;995.57;;;-2.40;100.00
29815;BME280;16708;50.426;7.664;2023-02-26T21:35:58;995.57;;;-2.60;100.00
29815;BME280;16708;50.426;7.664;2023-02-26T21:40:52;995.52;;;-2.76;100.00
29815;BME280;16708;50.426;7.664;2023-02-26T21:45:44;995.60;;;-2.96;100.00
29815;BME280;16708;50.426;7.664;2023-02-26T21:50:37;995.66;;;-2.92;100.00
29815;BME280;16708;50.426;7.664;2023-02-26T21:55:31;995.62;;;-3.04;100.00
29815;BME280;16708;50.426;7.664;2023-02-26T22:00:25;995.58;;;-3.03;100.00
29815;BME280;16708;50.426;7.664;2023-02-26T22:05:18;995.50;;;-3.08;100.00
29815;BME280;16708;50.426;7.664;2023-02-26T22:10:12;995.58;;;-3.18;100.00
29815;BME280;16708;50.426;7.664;2023-02-26T22:15:06;995.59;;;-3.28;100.00
29815;BME280;16708;50.426;7.664;2023-02-26T22:20:00;995.63;;;-3.07;100.00
29815;BME280;16708;50.426;7.664;2023-02-26T22:24:53;995.63;;;-3.07;100.00
29815;BME280;16708;50.426;7.664;2023-02-26T22:29:45;995.59;;;-3.04;100.00
29815;BME280;16708;50.426;7.664;2023-02-26T22:34:39;995.59;;;-3.29;100.00
29815;BME280;16708;50.426;7.664;2023-02-26T22:39:33;995.58;;;-3.32;100.00
29815;BME280;16708;50.426;7.664;2023-02-26T22:44:27;995.53;;;-3.15;100.00
29815;BME280;16708;50.426;7.664;2023-02-26T22:49:20;995.51;;;-3.10;100.00
29815;BME280;16708;50.426;7.664;2023-02-26T22:54:12;995.50;;;-2.89;100.00
29815;BME280;16708;50.426;7.664;2023-02-26T22:59:06;995.54;;;-2.94;100.00
29815;BME280;16708;50.426;7.664;2023-02-26T23:03:57;995.58;;;-3.00;100.00
29815;BME280;16708;50.426;7.664;2023-02-26T23:08:51;995.65;;;-3.08;100.00
29815;BME280;16708;50.426;7.664;2023-02-26T23:13:44;995.62;;;-3.31;100.00
29815;BME280;16708;50.426;7.664;2023-02-26T23:18:37;995.56;;;-3.48;100.00
29815;BME280;16708;50.426;7.664;2023-02-26T23:23:31;995.58;;;-3.47;100.00
29815;BME280;16708;50.426;7.664;2023-02-26T23:28:25;995.48;;;-3.42;100.00
29815;BME280;16708;50.426;7.664;2023-02-26T23:33:19;995.61;;;-3.42;100.00
29815;BME280;16708;50.426;7.664;2023-02-26T23:38:14;995.51;;;-3.18;100.00
29815;BME280;16708;50.426;7.664;2023-02-26T23:43:07;995.56;;;-3.11;100.00
29815;BME280;16708;50.426;7.664;2023-02-26T23:48:02;995.51;;;-3.33;100.00
29815;BME280;16708;50.426;7.664;2023-02-26T23:52:56;995.53;;;-3.30;100.00
29815;BME280;16708;50.426;7.664;2023-02-26T23:57:50;995.59;;;-3.25;100.00
